createdAt,value
2023-03-07T00:00:08.273Z,10.07
2023-03-07T00:02:36.557Z,9.70
2023-03-07T00:05:07.226Z,12.05
2023-03-07T00:07:35.528Z,11.25
2023-03-07T00:10:03.812Z,9.98
2023-03-07T00:12:32.092Z,7.72
2023-03-07T00:15:00.366Z,9.70
2023-03-07T00:17:28.718Z,9.60
2023-03-07T00:19:56.963Z,10.13
2023-03-07T00:22:26.534Z,11.50
2023-03-07T00:24:54.903Z,10.48
2023-03-07T00:27:23.112Z,11.63
2023-03-07T00:29:51.522Z,11.40
2023-03-07T00:32:19.781Z,11.27
2023-03-07T00:34:48.068Z,11.85
2023-03-07T00:37:16.454Z,11.68
2023-03-07T00:39:46.121Z,11.85
2023-03-07T00:42:14.353Z,11.00
2023-03-07T00:44:42.644Z,12.23
2023-03-07T00:47:10.920Z,12.18
2023-03-07T00:49:39.267Z,11.23
2023-03-07T00:52:07.859Z,11.90
2023-03-07T00:54:36.667Z,12.10
2023-03-07T00:57:06.843Z,11.98
2023-03-07T00:59:35.237Z,12.20
2023-03-07T01:02:03.572Z,12.57
2023-03-07T01:04:32.016Z,12.25
2023-03-07T01:07:00.345Z,12.52
2023-03-07T01:09:28.712Z,12.15
2023-03-07T01:11:57.205Z,12.05
2023-03-07T01:14:28.101Z,10.80
2023-03-07T01:16:56.556Z,11.15
2023-03-07T01:19:25.006Z,11.40
2023-03-07T01:21:55.404Z,11.00
2023-03-07T01:24:24.055Z,10.85
2023-03-07T01:26:52.892Z,11.48
2023-03-07T01:29:21.490Z,10.27
2023-03-07T01:31:51.157Z,8.23
2023-03-07T01:34:19.859Z,8.45
2023-03-07T01:36:48.496Z,9.75
2023-03-07T01:39:18.240Z,10.52
2023-03-07T01:41:50.882Z,9.43
2023-03-07T01:44:25.115Z,9.90
2023-03-07T01:46:55.632Z,9.23
2023-03-07T01:49:47.220Z,9.88
2023-03-07T01:52:20.568Z,11.10
2023-03-07T01:54:56.238Z,10.48
2023-03-07T01:57:30.710Z,10.50
2023-03-07T02:00:05.963Z,10.20
2023-03-07T02:02:45.227Z,10.15
2023-03-07T02:05:25.415Z,10.30
2023-03-07T02:07:55.178Z,10.70
2023-03-07T02:10:26.987Z,12.15
2023-03-07T02:12:55.783Z,11.90
2023-03-07T02:15:24.799Z,12.23
2023-03-07T02:17:54.780Z,10.82
2023-03-07T02:20:32.758Z,10.65
2023-03-07T02:23:01.304Z,10.68
2023-03-07T02:25:36.503Z,10.88
2023-03-07T02:28:08.400Z,10.45
2023-03-07T02:30:38.252Z,9.73
2023-03-07T02:33:06.729Z,9.55
2023-03-07T02:35:35.385Z,9.38
2023-03-07T02:38:07.643Z,11.50
2023-03-07T02:40:35.913Z,10.02
2023-03-07T02:43:09.619Z,9.57
2023-03-07T02:45:40.368Z,10.18
2023-03-07T02:48:08.987Z,11.30
2023-03-07T02:50:37.432Z,10.65
2023-03-07T02:53:06.150Z,9.55
2023-03-07T02:55:34.472Z,10.93
2023-03-07T02:58:06.706Z,11.10
2023-03-07T03:00:35.249Z,10.75
2023-03-07T03:03:04.021Z,12.23
2023-03-07T03:05:32.428Z,10.65
2023-03-07T03:08:00.738Z,10.85
2023-03-07T03:10:31.490Z,10.90
2023-03-07T03:13:01.661Z,11.30
2023-03-07T03:15:31.274Z,9.57
2023-03-07T03:17:59.605Z,9.48
2023-03-07T03:20:28.123Z,9.30
2023-03-07T03:22:57.635Z,10.05
2023-03-07T03:25:27.285Z,11.05
2023-03-07T03:27:55.767Z,9.60
2023-03-07T03:30:26.736Z,9.75
2023-03-07T03:32:57.154Z,9.90
2023-03-07T03:35:25.522Z,10.18
2023-03-07T03:37:56.901Z,10.13
2023-03-07T03:40:26.706Z,11.23
2023-03-07T03:42:55.050Z,10.43
2023-03-07T03:45:25.950Z,9.70
2023-03-07T03:47:54.233Z,10.07
2023-03-07T03:50:24.175Z,12.07
2023-03-07T03:52:52.584Z,10.15
2023-03-07T03:55:20.807Z,10.50
2023-03-07T03:57:49.132Z,11.00
2023-03-07T04:00:21.057Z,11.13
2023-03-07T04:02:49.821Z,10.05
2023-03-07T04:05:19.523Z,11.27
2023-03-07T04:07:51.421Z,10.02
2023-03-07T04:10:20.641Z,10.10
2023-03-07T04:12:48.932Z,10.52
2023-03-07T04:15:17.553Z,9.40
2023-03-07T04:17:45.891Z,10.35
2023-03-07T04:20:17.744Z,11.68
2023-03-07T04:22:49.470Z,9.70
2023-03-07T04:25:19.816Z,9.77
2023-03-07T04:27:48.497Z,8.65
2023-03-07T04:30:17.164Z,10.23
2023-03-07T04:32:45.607Z,9.23
2023-03-07T04:35:13.895Z,9.77
2023-03-07T04:37:42.122Z,9.85
2023-03-07T04:40:13.331Z,11.00
2023-03-07T04:42:41.643Z,10.60
2023-03-07T04:45:10.979Z,10.35
2023-03-07T04:47:39.254Z,10.85
2023-03-07T04:50:08.441Z,12.25
2023-03-07T04:52:37.860Z,11.10
2023-03-07T04:55:07.449Z,11.10
2023-03-07T04:57:37.554Z,10.80
2023-03-07T05:00:09.373Z,11.95
2023-03-07T05:02:39.361Z,13.45
2023-03-07T05:05:09.041Z,12.60
2023-03-07T05:07:37.505Z,16.38
2023-03-07T05:10:06.637Z,27.38
2023-03-07T05:12:35.082Z,13.85
2023-03-07T05:15:05.839Z,13.90
2023-03-07T05:17:34.140Z,13.35
2023-03-07T05:20:02.807Z,15.30
2023-03-07T05:22:31.492Z,13.85
2023-03-07T05:24:59.987Z,14.65
2023-03-07T05:27:28.617Z,15.75
2023-03-07T05:29:56.858Z,16.17
2023-03-07T05:32:26.788Z,15.10
2023-03-07T05:34:55.462Z,14.75
2023-03-07T05:37:24.470Z,15.18
2023-03-07T05:39:53.262Z,13.73
2023-03-07T05:42:21.739Z,13.82
2023-03-07T05:44:50.657Z,14.32
2023-03-07T05:47:19.002Z,13.25
2023-03-07T05:49:48.690Z,14.77
2023-03-07T05:52:16.985Z,13.85
2023-03-07T05:54:45.310Z,12.82
2023-03-07T05:57:14.188Z,13.18
2023-03-07T05:59:42.898Z,13.60
2023-03-07T06:02:11.332Z,14.00
2023-03-07T06:04:39.685Z,14.00
2023-03-07T06:07:09.364Z,12.23
2023-03-07T06:09:37.945Z,14.55
2023-03-07T06:12:06.937Z,13.50
2023-03-07T06:14:35.156Z,15.40
2023-03-07T06:17:04.442Z,14.07
2023-03-07T06:19:34.007Z,14.68
2023-03-07T06:22:02.548Z,14.35
2023-03-07T06:24:34.308Z,14.68
2023-03-07T06:27:02.629Z,13.75
2023-03-07T06:29:30.944Z,13.23
2023-03-07T06:31:59.692Z,12.15
2023-03-07T06:34:28.102Z,12.18
2023-03-07T06:36:57.593Z,11.82
2023-03-07T06:39:31.466Z,12.77
2023-03-07T06:42:02.826Z,13.50
2023-03-07T06:44:32.838Z,12.77
2023-03-07T06:47:05.786Z,12.20
2023-03-07T06:49:34.117Z,22.15
2023-03-07T06:52:05.765Z,14.70
2023-03-07T06:54:34.134Z,14.13
2023-03-07T06:57:03.940Z,14.13
2023-03-07T06:59:32.198Z,13.57
2023-03-07T07:02:03.266Z,13.30
2023-03-07T07:04:31.786Z,12.82
2023-03-07T07:07:00.242Z,13.85
2023-03-07T07:09:29.346Z,11.68
2023-03-07T07:11:57.931Z,12.80
2023-03-07T07:14:27.652Z,12.35
2023-03-07T07:16:56.138Z,12.27
2023-03-07T07:19:26.506Z,11.30
2023-03-07T07:21:55.235Z,12.02
2023-03-07T07:24:23.684Z,10.40
2023-03-07T07:26:55.880Z,11.80
2023-03-07T07:29:25.001Z,13.25
2023-03-07T07:31:55.602Z,12.25
2023-03-07T07:34:24.148Z,12.98
2023-03-07T07:36:53.194Z,12.23
2023-03-07T07:39:21.840Z,11.40
2023-03-07T07:41:50.121Z,11.40
2023-03-07T07:44:23.838Z,11.18
2023-03-07T07:47:00.531Z,11.65
2023-03-07T07:49:29.277Z,12.35
2023-03-07T07:51:57.562Z,11.35
2023-03-07T07:54:26.299Z,12.25
2023-03-07T07:56:54.598Z,12.20
2023-03-07T07:59:24.114Z,12.20
2023-03-07T08:01:52.986Z,10.57
2023-03-07T08:04:22.617Z,11.10
2023-03-07T08:06:50.963Z,10.18
2023-03-07T08:09:19.508Z,11.40
2023-03-07T08:11:48.586Z,12.30
2023-03-07T08:14:17.026Z,10.32
2023-03-07T08:16:45.318Z,11.25
2023-03-07T08:19:13.717Z,12.43
2023-03-07T08:21:43.336Z,10.27
2023-03-07T08:24:11.590Z,11.38
2023-03-07T08:26:40.049Z,10.57
2023-03-07T08:29:08.334Z,11.40
2023-03-07T08:31:36.835Z,10.30
2023-03-07T08:34:05.095Z,11.60
2023-03-07T08:36:33.512Z,12.23
2023-03-07T08:39:03.121Z,11.13
2023-03-07T08:41:31.355Z,9.57
2023-03-07T08:43:59.632Z,9.30
2023-03-07T08:46:27.888Z,9.60
2023-03-07T08:48:56.263Z,9.40
2023-03-07T08:51:25.029Z,9.20
2023-03-07T08:53:53.326Z,8.87
2023-03-07T08:56:23.111Z,8.53
2023-03-07T08:58:53.823Z,9.10
2023-03-07T09:01:22.399Z,8.10
2023-03-07T09:03:50.797Z,8.30
2023-03-07T09:06:21.054Z,7.50
2023-03-07T09:08:50.332Z,8.93
2023-03-07T09:11:21.626Z,9.07
2023-03-07T09:13:53.075Z,8.43
2023-03-07T09:16:22.891Z,7.53
2023-03-07T09:18:51.664Z,10.53
2023-03-07T09:21:19.936Z,8.73
2023-03-07T09:23:48.237Z,9.90
2023-03-07T09:26:16.999Z,8.57
2023-03-07T09:28:45.336Z,7.53
2023-03-07T09:31:16.485Z,7.80
2023-03-07T09:33:46.986Z,7.97
2023-03-07T09:36:16.237Z,8.47
2023-03-07T09:38:44.665Z,7.80
2023-03-07T09:41:31.824Z,5.47
2023-03-07T09:44:06.674Z,6.80
2023-03-07T09:47:11.044Z,7.27
2023-03-07T09:49:46.304Z,6.50
2023-03-07T09:52:18.351Z,6.07
2023-03-07T09:54:51.578Z,5.93
2023-03-07T09:57:24.419Z,5.20
2023-03-07T09:59:56.758Z,6.33
2023-03-07T10:02:32.159Z,6.73
2023-03-07T10:05:06.093Z,7.23
2023-03-07T10:07:38.309Z,7.33
2023-03-07T10:10:12.306Z,6.43
2023-03-07T10:12:58.004Z,5.43
2023-03-07T10:15:42.573Z,5.70
2023-03-07T10:18:22.554Z,5.17
2023-03-07T10:20:53.808Z,6.30
2023-03-07T10:23:42.284Z,5.93
2023-03-07T10:26:12.904Z,6.07
2023-03-07T10:28:43.352Z,6.03
2023-03-07T10:31:25.346Z,5.23
2023-03-07T10:33:56.110Z,5.30
2023-03-07T10:36:35.986Z,5.03
2023-03-07T10:39:10.521Z,4.03
2023-03-07T10:41:38.807Z,3.53
2023-03-07T10:44:07.197Z,3.50
2023-03-07T10:46:41.577Z,3.20
2023-03-07T10:49:21.684Z,3.60
2023-03-07T10:51:58.486Z,3.67
2023-03-07T10:54:31.047Z,3.60
2023-03-07T10:57:11.045Z,3.97
2023-03-07T10:59:40.944Z,4.20
2023-03-07T11:02:30.562Z,4.20
2023-03-07T11:05:00.947Z,3.27
2023-03-07T11:07:31.679Z,3.77
2023-03-07T11:10:01.339Z,3.53
2023-03-07T11:12:32.001Z,3.53
2023-03-07T11:15:12.903Z,3.70
2023-03-07T11:17:44.181Z,3.20
2023-03-07T11:20:22.949Z,4.17
2023-03-07T11:22:51.622Z,3.80
2023-03-07T11:25:23.400Z,2.07
2023-03-07T11:27:53.693Z,2.10
2023-03-07T11:30:26.248Z,2.17
2023-03-07T11:33:03.261Z,2.17
2023-03-07T11:35:51.110Z,2.33
2023-03-07T11:38:31.185Z,2.80
2023-03-07T11:41:06.595Z,2.80
2023-03-07T11:43:49.128Z,2.67
2023-03-07T11:46:25.341Z,3.47
2023-03-07T11:49:01.615Z,2.13
2023-03-07T11:51:44.283Z,2.90
2023-03-07T11:54:23.458Z,2.50
2023-03-07T11:56:54.811Z,2.97
2023-03-07T11:59:53.798Z,2.63
2023-03-07T12:02:45.824Z,2.33
2023-03-07T12:05:32.532Z,3.27
2023-03-07T12:08:31.777Z,2.57
2023-03-07T12:11:38.536Z,2.40
2023-03-07T12:14:20.626Z,3.13
2023-03-07T12:16:56.924Z,2.40
2023-03-07T12:19:44.373Z,2.53
2023-03-07T12:22:27.435Z,2.40
2023-03-07T12:25:19.640Z,2.17
2023-03-07T12:27:58.773Z,2.33
2023-03-07T12:30:32.899Z,2.30
2023-03-07T12:33:01.984Z,2.67
2023-03-07T12:35:43.481Z,2.63
2023-03-07T12:38:24.389Z,2.53
2023-03-07T12:41:00.690Z,2.47
2023-03-07T12:43:34.277Z,2.57
2023-03-07T12:46:13.418Z,2.40
2023-03-07T12:48:47.997Z,2.30
2023-03-07T12:51:23.874Z,2.07
2023-03-07T12:53:58.898Z,1.83
2023-03-07T12:56:33.978Z,1.80
2023-03-07T12:59:05.793Z,1.80
2023-03-07T13:01:38.201Z,2.27
2023-03-07T13:04:14.447Z,2.77
2023-03-07T13:06:44.695Z,1.63
2023-03-07T13:09:20.731Z,2.30
2023-03-07T13:12:27.138Z,1.97
2023-03-07T13:14:58.170Z,2.03
2023-03-07T13:17:59.689Z,2.30
2023-03-07T13:20:45.472Z,2.30
2023-03-07T13:23:31.516Z,1.80
2023-03-07T13:26:02.136Z,1.80
2023-03-07T13:28:39.160Z,2.20
2023-03-07T13:31:48.648Z,2.20
2023-03-07T13:34:51.507Z,2.00
2023-03-07T13:37:54.597Z,2.17
2023-03-07T13:40:49.457Z,2.20
2023-03-07T13:43:59.958Z,2.47
2023-03-07T13:47:01.262Z,2.07
2023-03-07T13:49:38.164Z,2.37
2023-03-07T13:52:30.350Z,2.50
2023-03-07T13:55:01.587Z,2.40
2023-03-07T13:57:36.320Z,2.73
2023-03-07T14:00:19.894Z,2.10
2023-03-07T14:02:48.362Z,2.30
2023-03-07T14:05:16.774Z,2.50
2023-03-07T14:07:45.856Z,2.20
2023-03-07T14:10:22.804Z,2.00
2023-03-07T14:13:33.010Z,2.50
2023-03-07T14:16:11.475Z,2.07
2023-03-07T14:18:56.105Z,2.83
2023-03-07T14:21:36.737Z,2.30
2023-03-07T14:24:23.391Z,3.10
2023-03-07T14:26:57.903Z,3.70
2023-03-07T14:29:27.327Z,2.17
2023-03-07T14:31:57.364Z,2.50
2023-03-07T14:34:30.527Z,2.40
2023-03-07T14:37:01.245Z,2.40
2023-03-07T14:39:44.903Z,2.40
2023-03-07T14:42:24.234Z,3.00
2023-03-07T14:45:12.849Z,3.10
2023-03-07T14:47:53.708Z,3.50
2023-03-07T14:50:24.379Z,3.30
2023-03-07T14:52:57.141Z,3.50
2023-03-07T14:55:37.075Z,4.13
2023-03-07T14:58:07.595Z,2.73
2023-03-07T15:00:36.324Z,2.90
2023-03-07T15:03:08.205Z,3.57
2023-03-07T15:05:38.662Z,3.23
2023-03-07T15:08:19.161Z,3.20
2023-03-07T15:10:53.698Z,2.77
2023-03-07T15:13:28.219Z,2.80
2023-03-07T15:15:59.996Z,3.07
2023-03-07T15:18:31.492Z,2.47
2023-03-07T15:21:01.978Z,2.73
2023-03-07T15:23:31.043Z,2.10
2023-03-07T15:26:05.102Z,2.60
2023-03-07T15:28:37.029Z,2.30
2023-03-07T15:31:05.839Z,2.67
2023-03-07T15:33:35.008Z,2.77
2023-03-07T15:36:20.235Z,2.10
2023-03-07T15:38:50.294Z,2.40
2023-03-07T15:41:30.150Z,2.80
2023-03-07T15:44:08.288Z,2.60
2023-03-07T15:46:39.745Z,2.70
2023-03-07T15:49:08.128Z,2.45
2023-03-07T15:51:38.811Z,2.70
2023-03-07T15:54:22.219Z,7.28
2023-03-07T15:56:56.248Z,8.02
2023-03-07T15:59:30.766Z,2.63
2023-03-07T16:01:59.607Z,3.38
2023-03-07T16:04:40.168Z,2.60
2023-03-07T16:07:17.472Z,2.90
2023-03-07T16:09:45.789Z,3.65
2023-03-07T16:12:15.934Z,3.15
2023-03-07T16:14:48.352Z,3.08
2023-03-07T16:17:21.084Z,2.70
2023-03-07T16:19:49.542Z,3.50
2023-03-07T16:22:21.774Z,3.13
2023-03-07T16:24:50.096Z,2.55
2023-03-07T16:27:19.831Z,2.83
2023-03-07T16:29:49.887Z,2.92
2023-03-07T16:32:22.671Z,2.83
2023-03-07T16:34:51.399Z,3.42
2023-03-07T16:37:20.664Z,3.15
2023-03-07T16:39:48.944Z,2.65
2023-03-07T16:42:20.909Z,3.30
2023-03-07T16:44:52.342Z,2.97
2023-03-07T16:47:20.685Z,3.28
2023-03-07T16:49:49.114Z,3.97
2023-03-07T16:52:17.501Z,3.15
2023-03-07T16:54:45.820Z,3.95
2023-03-07T16:57:16.609Z,3.10
2023-03-07T16:59:47.965Z,4.00
2023-03-07T17:02:19.525Z,3.47
2023-03-07T17:04:48.115Z,3.85
2023-03-07T17:07:18.313Z,4.10
2023-03-07T17:09:46.731Z,3.75
2023-03-07T17:12:16.001Z,5.15
2023-03-07T17:14:44.747Z,3.67
2023-03-07T17:17:20.895Z,4.32
2023-03-07T17:19:49.374Z,4.57
2023-03-07T17:22:20.230Z,3.55
2023-03-07T17:24:48.564Z,4.18
2023-03-07T17:27:17.617Z,5.10
2023-03-07T17:29:50.131Z,4.90
2023-03-07T17:32:20.127Z,3.72
2023-03-07T17:34:48.532Z,3.33
2023-03-07T17:37:16.918Z,4.53
2023-03-07T17:39:45.760Z,4.40
2023-03-07T17:42:14.893Z,3.60
2023-03-07T17:44:43.154Z,4.60
2023-03-07T17:47:11.349Z,3.40
2023-03-07T17:49:40.992Z,3.08
2023-03-07T17:52:09.318Z,2.83
2023-03-07T17:54:37.765Z,3.13
2023-03-07T17:57:06.424Z,3.75
2023-03-07T17:59:34.759Z,5.70
2023-03-07T18:02:03.267Z,3.95
2023-03-07T18:04:31.883Z,4.88
2023-03-07T18:07:01.763Z,4.13
2023-03-07T18:09:30.507Z,3.80
2023-03-07T18:11:59.133Z,4.68
2023-03-07T18:14:28.288Z,4.47
2023-03-07T18:16:57.191Z,5.40
2023-03-07T18:19:26.954Z,3.90
2023-03-07T18:21:56.090Z,4.28
2023-03-07T18:24:27.471Z,3.90
2023-03-07T18:26:56.908Z,3.58
2023-03-07T18:29:25.635Z,3.15
2023-03-07T18:31:54.262Z,2.78
2023-03-07T18:34:24.727Z,3.60
2023-03-07T18:36:54.312Z,4.13
2023-03-07T18:39:24.313Z,2.85
2023-03-07T18:41:54.007Z,3.80
2023-03-07T18:44:22.866Z,4.10
2023-03-07T18:46:51.216Z,4.20
2023-03-07T18:49:19.556Z,4.10
2023-03-07T18:51:48.516Z,4.68
2023-03-07T18:54:16.994Z,4.15
2023-03-07T18:56:47.288Z,4.95
2023-03-07T18:59:17.670Z,4.75
2023-03-07T19:01:50.219Z,5.63
2023-03-07T19:04:19.445Z,5.05
2023-03-07T19:06:48.615Z,4.90
2023-03-07T19:09:18.000Z,4.43
2023-03-07T19:11:46.949Z,4.25
2023-03-07T19:14:16.541Z,4.18
2023-03-07T19:16:44.866Z,4.40
2023-03-07T19:19:13.111Z,4.68
2023-03-07T19:21:41.513Z,4.00
2023-03-07T19:24:12.573Z,3.88
2023-03-07T19:26:42.769Z,4.07
2023-03-07T19:29:12.696Z,4.18
2023-03-07T19:31:44.068Z,5.20
2023-03-07T19:34:12.485Z,3.90
2023-03-07T19:36:41.812Z,4.70
2023-03-07T19:39:15.015Z,3.90
2023-03-07T19:41:45.417Z,3.50
2023-03-07T19:44:13.587Z,3.45
2023-03-07T19:46:46.437Z,3.67
2023-03-07T19:49:15.328Z,5.00
2023-03-07T19:51:43.726Z,3.80
2023-03-07T19:54:14.566Z,3.53
2023-03-07T19:56:45.146Z,4.07
2023-03-07T19:59:14.202Z,5.10
2023-03-07T20:01:44.033Z,4.43
2023-03-07T20:04:13.268Z,3.70
2023-03-07T20:06:43.297Z,3.58
2023-03-07T20:09:14.103Z,4.57
2023-03-07T20:11:43.882Z,4.70
2023-03-07T20:14:13.076Z,4.85
2023-03-07T20:16:42.019Z,7.65
2023-03-07T20:19:11.734Z,7.70
2023-03-07T20:21:41.212Z,9.00
2023-03-07T20:24:10.096Z,11.30
2023-03-07T20:26:40.753Z,14.57
2023-03-07T20:29:09.827Z,14.38
2023-03-07T20:31:39.394Z,14.32
2023-03-07T20:34:08.421Z,15.90
2023-03-07T20:36:38.924Z,15.40
2023-03-07T20:39:08.817Z,14.32
2023-03-07T20:41:37.225Z,14.48
2023-03-07T20:44:07.643Z,13.50
2023-03-07T20:46:36.963Z,13.05
2023-03-07T20:49:05.816Z,12.50
2023-03-07T20:51:36.067Z,11.23
2023-03-07T20:54:07.926Z,9.70
2023-03-07T20:56:38.431Z,9.25
2023-03-07T20:59:07.554Z,10.55
2023-03-07T21:01:36.375Z,11.40
2023-03-07T21:04:08.262Z,11.50
2023-03-07T21:06:37.326Z,12.07
2023-03-07T21:09:10.055Z,13.35
2023-03-07T21:11:40.131Z,13.88
2023-03-07T21:14:08.834Z,13.05
2023-03-07T21:16:37.108Z,13.75
2023-03-07T21:19:07.128Z,12.73
2023-03-07T21:21:36.875Z,12.45
2023-03-07T21:24:07.178Z,13.63
2023-03-07T21:26:37.072Z,11.13
2023-03-07T21:29:08.922Z,10.88
2023-03-07T21:31:38.850Z,9.88
2023-03-07T21:34:09.098Z,8.85
2023-03-07T21:36:37.379Z,10.88
2023-03-07T21:39:09.954Z,10.32
2023-03-07T21:41:38.596Z,11.27
2023-03-07T21:44:07.383Z,10.85
2023-03-07T21:46:35.786Z,10.80
2023-03-07T21:49:04.276Z,10.95
2023-03-07T21:51:32.556Z,12.15
2023-03-07T21:54:00.866Z,10.57
2023-03-07T21:56:30.587Z,10.30
2023-03-07T21:58:58.818Z,12.18
2023-03-07T22:01:31.574Z,12.25
2023-03-07T22:04:07.211Z,11.98
2023-03-07T22:06:38.933Z,12.93
2023-03-07T22:09:09.759Z,11.02
2023-03-07T22:11:39.519Z,14.50
2023-03-07T22:14:09.398Z,14.10
2023-03-07T22:16:38.149Z,13.70
2023-03-07T22:19:06.397Z,15.68
2023-03-07T22:21:34.710Z,14.75
2023-03-07T22:24:02.984Z,13.77
2023-03-07T22:26:32.964Z,12.40
2023-03-07T22:29:03.554Z,11.45
2023-03-07T22:31:31.855Z,12.60
2023-03-07T22:34:00.865Z,11.85
2023-03-07T22:36:29.181Z,11.85
2023-03-07T22:38:57.571Z,11.90
2023-03-07T22:41:26.833Z,12.13
2023-03-07T22:43:55.656Z,12.90
2023-03-07T22:46:25.786Z,11.38
2023-03-07T22:48:54.940Z,11.18
2023-03-07T22:51:24.491Z,12.35
2023-03-07T22:53:52.694Z,12.40
2023-03-07T22:56:23.206Z,11.80
2023-03-07T22:58:51.475Z,12.43
2023-03-07T23:01:21.345Z,10.90
2023-03-07T23:03:52.202Z,10.70
2023-03-07T23:06:22.441Z,10.85
2023-03-07T23:08:52.476Z,10.45
2023-03-07T23:11:22.757Z,10.10
2023-03-07T23:13:51.309Z,11.25
2023-03-07T23:16:21.580Z,10.48
2023-03-07T23:18:52.299Z,10.43
2023-03-07T23:21:25.863Z,9.55
2023-03-07T23:23:54.891Z,9.18
2023-03-07T23:26:25.054Z,10.75
2023-03-07T23:28:53.590Z,9.38
2023-03-07T23:31:23.892Z,10.43
2023-03-07T23:33:56.293Z,11.00
2023-03-07T23:36:26.343Z,13.65
2023-03-07T23:38:54.599Z,11.80
2023-03-07T23:41:23.066Z,12.10
2023-03-07T23:43:52.435Z,12.23
2023-03-07T23:46:20.847Z,12.32
2023-03-07T23:48:49.137Z,12.40
2023-03-07T23:51:19.009Z,11.65
2023-03-07T23:53:47.213Z,11.40
2023-03-07T23:56:16.310Z,11.38
2023-03-07T23:58:47.510Z,11.90
